Time;durP1;ratioP1;P1;durP2;ratioP2;P2;SDS_P1;SDS_P2;PMS_P1;PMS_P2;Temp;Humidity;BMP_temperature;BMP_pressure;BME280_temperature;BME280_humidity;BME280_pressure;Samples;Min_cycle;Max_cycle;Signal;HPM_P1;HPM_P2
2022/05/05 00:01:02;;;;;;;;;;;;;;;17.47;38.68;102057.88;5012167;28;19926;-71
2022/05/05 00:03:28;;;;;;;;;;;;;;;17.22;39.14;102050.03;5024248;28;19924;-69
2022/05/05 00:05:54;;;;;;;;;;;;;;;17.29;39.17;102056.16;5014584;28;19971;-70
2022/05/05 00:08:20;;;;;;;;;;;;;;;17.25;39.24;102044.13;5015020;28;19925;-71
2022/05/05 00:16:12;;;;;;;;;;;;;;;17.28;38.97;102050.94;5015017;28;19929;-70
2022/05/05 00:18:37;;;;;;;;;;;;;;;17.12;39.12;102052.50;5015033;28;19929;-70
2022/05/05 00:21:03;;;;;;;;;;;;;;;17.19;39.00;102055.94;5015879;28;19914;-70
2022/05/05 00:23:28;;;;;;;;;;;;;;;17.09;39.07;102049.47;5015212;28;19921;-71
2022/05/05 00:25:53;;;;;;;;;;;;;;;16.99;39.38;102047.34;5015188;28;19978;-71
2022/05/05 00:28:19;;;;;;;;;;;;;;;17.02;39.80;102046.06;5015043;28;19921;-70
2022/05/05 00:30:44;;;;;;;;;;;;;;;16.99;39.26;102039.19;5014865;28;20030;-70
2022/05/05 00:33:09;;;;;;;;;;;;;;;16.95;39.53;102037.19;5015939;28;19917;-71
2022/05/05 00:35:34;;;;;;;;;;;;;;;16.86;39.56;102038.63;5014614;28;20598;-70
2022/05/05 00:38:00;;;;;;;;;;;;;;;16.89;39.89;102033.53;5013229;28;20462;-70
2022/05/05 00:40:25;;;;;;;;;;;;;;;16.86;40.20;102038.63;5014457;28;19948;-70
2022/05/05 00:42:50;;;;;;;;;;;;;;;16.77;40.43;102043.59;5014780;28;19925;-70
2022/05/05 00:45:15;;;;;;;;;;;;;;;16.78;40.09;102047.13;5015108;28;20376;-71
2022/05/05 00:47:41;;;;;;;;;;;;;;;16.68;40.29;102045.00;5014462;28;20044;-70
2022/05/05 00:50:06;;;;;;;;;;;;;;;16.79;40.19;102044.16;5014445;28;19932;-70
2022/05/05 00:52:31;;;;;;;;;;;;;;;16.77;40.13;102042.75;5014507;28;19991;-70
2022/05/05 00:54:59;;;;;;;;;;;;;;;16.75;40.27;102042.16;5014289;28;19949;-70
2022/05/05 00:57:24;;;;;;;;;;;;;;;16.62;40.35;102043.25;5015023;28;19917;-70
2022/05/05 00:59:50;;;;;;;;;;;;;;;16.73;40.09;102041.59;5014236;28;20420;-71
2022/05/05 01:02:16;;;;;;;;;;;;;;;16.54;40.29;102046.28;5023053;28;20020;-71
2022/05/05 01:04:42;;;;;;;;;;;;;;;16.70;39.83;102051.03;5014408;28;19929;-71
2022/05/05 01:07:08;;;;;;;;;;;;;;;16.62;40.34;102051.38;5014273;28;20409;-70
2022/05/05 01:09:35;;;;;;;;;;;;;;;16.61;39.76;102058.69;5013959;28;19924;-70
2022/05/05 01:12:00;;;;;;;;;;;;;;;16.71;39.95;102055.38;5014448;28;19924;-71
2022/05/05 01:14:25;;;;;;;;;;;;;;;16.45;40.68;102056.63;5014010;28;19917;-70
2022/05/05 01:16:51;;;;;;;;;;;;;;;16.66;40.08;102055.28;5013466;28;20020;-71
2022/05/05 01:19:16;;;;;;;;;;;;;;;16.61;40.35;102058.69;5013767;28;19921;-69
2022/05/05 01:21:49;;;;;;;;;;;;;;;16.55;40.12;102058.78;5013917;28;19925;-71
2022/05/05 01:24:14;;;;;;;;;;;;;;;16.57;40.14;102060.22;5014441;28;19910;-71
2022/05/05 01:29:23;;;;;;;;;;;;;;;16.61;40.28;102064.13;5026663;28;20147;-70
2022/05/05 01:31:49;;;;;;;;;;;;;;;16.50;40.38;102062.22;5033327;28;20011;-71
2022/05/05 01:34:14;;;;;;;;;;;;;;;16.49;40.18;102062.47;5026436;28;20019;-70
2022/05/05 01:36:39;;;;;;;;;;;;;;;16.42;40.73;102059.00;5012469;28;19917;-70
2022/05/05 01:39:04;;;;;;;;;;;;;;;16.48;40.52;102063.47;5014252;28;19920;-70
2022/05/05 01:41:31;;;;;;;;;;;;;;;16.34;40.82;102062.03;5013533;28;20016;-71
2022/05/05 01:43:56;;;;;;;;;;;;;;;16.38;40.62;102068.66;5013762;28;19917;-71
2022/05/05 01:46:21;;;;;;;;;;;;;;;16.31;40.53;102070.66;5013060;28;19921;-70
2022/05/05 01:48:47;;;;;;;;;;;;;;;16.34;40.53;102070.19;5013312;28;19933;-71
2022/05/05 01:51:12;;;;;;;;;;;;;;;16.34;40.61;102064.75;5013774;28;20409;-71
2022/05/05 01:53:37;;;;;;;;;;;;;;;16.18;40.97;102060.84;5003031;28;19930;-71
2022/05/05 01:56:11;;;;;;;;;;;;;;;15.97;41.36;102064.09;4993982;28;19918;-70
2022/05/05 01:58:38;;;;;;;;;;;;;;;16.17;41.16;102069.22;4993811;28;19929;-70
2022/05/05 02:01:04;;;;;;;;;;;;;;;16.10;41.08;102061.16;4994632;28;19922;-70
2022/05/05 02:03:29;;;;;;;;;;;;;;;16.10;40.84;102072.00;5021451;28;19925;-70
2022/05/05 02:05:54;;;;;;;;;;;;;;;15.94;41.38;102067.25;5012558;28;19999;-71
2022/05/05 02:08:20;;;;;;;;;;;;;;;16.06;41.36;102072.72;5013307;28;19932;-70
2022/05/05 02:10:45;;;;;;;;;;;;;;;15.87;41.40;102071.09;5013493;28;19921;-70
2022/05/05 02:13:10;;;;;;;;;;;;;;;15.93;41.53;102070.19;5013027;28;19921;-70
2022/05/05 02:15:35;;;;;;;;;;;;;;;15.81;42.74;102072.84;5012980;28;19925;-70
2022/05/05 02:18:11;;;;;;;;;;;;;;;15.96;42.42;102067.84;5013279;28;19918;-71
2022/05/05 02:20:37;;;;;;;;;;;;;;;15.92;42.34;102066.63;5012726;28;19921;-70
2022/05/05 02:23:03;;;;;;;;;;;;;;;15.73;42.90;102065.03;5012973;28;19933;-71
2022/05/05 02:25:28;;;;;;;;;;;;;;;15.64;42.14;102066.44;5012607;28;20133;-71
2022/05/05 02:27:53;;;;;;;;;;;;;;;15.84;42.37;102065.09;5012021;28;19960;-70
2022/05/05 02:30:21;;;;;;;;;;;;;;;15.56;42.39;102064.88;5010376;28;19918;-70
2022/05/05 02:32:47;;;;;;;;;;;;;;;15.77;42.41;102068.94;4993363;28;20025;-71
2022/05/05 02:35:12;;;;;;;;;;;;;;;15.71;42.27;102069.88;4993314;28;19928;-70
2022/05/05 02:40:22;;;;;;;;;;;;;;;15.65;42.22;102073.50;4993345;28;19929;-72
2022/05/05 02:42:47;;;;;;;;;;;;;;;15.56;42.55;102077.56;4993229;28;19918;-71
2022/05/05 02:45:12;;;;;;;;;;;;;;;15.46;42.59;102075.41;4999137;28;20369;-72
2022/05/05 02:47:38;;;;;;;;;;;;;;;15.51;42.71;102078.25;5012712;28;19925;-70
2022/05/05 02:50:03;;;;;;;;;;;;;;;15.47;42.78;102073.50;5012842;28;19918;-71
2022/05/05 02:52:28;;;;;;;;;;;;;;;15.39;42.61;102071.91;5012559;28;19921;-70
2022/05/05 02:54:55;;;;;;;;;;;;;;;15.42;42.22;102065.25;5012403;28;19925;-71
2022/05/05 02:57:23;;;;;;;;;;;;;;;15.43;42.44;102072.34;5013161;28;19917;-70
2022/05/05 02:59:48;;;;;;;;;;;;;;;15.41;42.79;102071.69;5012770;28;19924;-70
2022/05/05 03:02:14;;;;;;;;;;;;;;;15.46;42.48;102072.69;5020189;28;19924;-70
2022/05/05 03:04:39;;;;;;;;;;;;;;;15.36;42.48;102071.53;4993078;28;19941;-70
2022/05/05 03:07:05;;;;;;;;;;;;;;;15.05;42.60;102077.09;4993363;28;20336;-71
2022/05/05 03:09:30;;;;;;;;;;;;;;;15.24;42.70;102071.47;4993352;28;19917;-71
2022/05/05 03:11:55;;;;;;;;;;;;;;;15.14;43.51;102073.03;4994160;28;19929;-70
2022/05/05 03:14:21;;;;;;;;;;;;;;;15.26;43.26;102071.22;4993238;28;19929;-70
2022/05/05 03:16:46;;;;;;;;;;;;;;;15.05;43.31;102075.22;4993107;28;19960;-70
2022/05/05 03:19:11;;;;;;;;;;;;;;;14.95;43.99;102078.47;4992983;28;19922;-69
2022/05/05 03:21:37;;;;;;;;;;;;;;;15.16;43.18;102076.34;4993107;28;20369;-70
2022/05/05 03:24:03;;;;;;;;;;;;;;;15.13;43.33;102082.22;4994253;28;19918;-71
2022/05/05 03:26:28;;;;;;;;;;;;;;;15.05;43.17;102077.09;4993615;28;19928;-70
2022/05/05 03:28:54;;;;;;;;;;;;;;;14.89;43.29;102079.34;4993541;28;19926;-70
2022/05/05 03:31:19;;;;;;;;;;;;;;;15.23;43.08;102077.13;4993462;28;19969;-71
2022/05/05 03:33:44;;;;;;;;;;;;;;;15.14;43.33;102078.44;4993632;28;21421;-70
2022/05/05 03:36:09;;;;;;;;;;;;;;;14.98;43.99;102077.16;4994297;28;19918;-71
2022/05/05 03:38:35;;;;;;;;;;;;;;;15.08;43.61;102087.47;4993418;28;19997;-70
2022/05/05 03:41:00;;;;;;;;;;;;;;;15.05;43.41;102090.63;4996651;28;20001;-70
2022/05/05 03:43:25;;;;;;;;;;;;;;;14.93;43.58;102088.69;4997435;28;19925;-71
2022/05/05 03:45:51;;;;;;;;;;;;;;;14.97;43.97;102089.06;5007747;28;20369;-71
2022/05/05 03:48:16;;;;;;;;;;;;;;;14.51;46.13;102096.75;5017379;28;20425;-71
2022/05/05 03:50:42;;;;;;;;;;;;;;;14.54;45.90;102099.03;5016546;28;19922;-70
2022/05/05 03:53:07;;;;;;;;;;;;;;;14.75;45.08;102102.16;5016219;28;20278;-70
2022/05/05 03:55:32;;;;;;;;;;;;;;;14.75;45.39;102101.34;5016477;28;20516;-71
2022/05/05 03:57:58;;;;;;;;;;;;;;;14.68;44.80;102095.16;5016771;28;19921;-71
2022/05/05 04:00:23;;;;;;;;;;;;;;;14.67;45.12;102102.44;5016894;28;19924;-70
2022/05/05 04:03:30;;;;;;;;;;;;;;;14.70;44.91;102106.59;4999903;28;19918;-70
2022/05/05 04:05:34;;;;;;;;;;;;;;;14.75;44.64;102106.75;4996189;28;19922;-70
2022/05/05 04:08:03;;;;;;;;;;;;;;;14.76;44.88;102111.13;4995934;28;19929;-70
2022/05/05 04:10:29;;;;;;;;;;;;;;;14.71;44.74;102116.34;4996309;28;19922;-71
2022/05/05 04:12:54;;;;;;;;;;;;;;;14.64;45.05;102121.81;4996189;28;19922;-71
2022/05/05 04:15:20;;;;;;;;;;;;;;;14.72;44.81;102126.94;4994434;28;20469;-70
2022/05/05 04:17:45;;;;;;;;;;;;;;;14.65;44.98;102122.66;4995256;28;20293;-71
2022/05/05 04:20:10;;;;;;;;;;;;;;;14.66;44.54;102117.00;4998498;28;20281;-70
2022/05/05 04:22:36;;;;;;;;;;;;;;;14.65;44.55;102122.66;5010528;28;20420;-70
2022/05/05 04:25:02;;;;;;;;;;;;;;;14.58;44.95;102128.13;4995539;28;19968;-70
2022/05/05 04:27:27;;;;;;;;;;;;;;;14.29;46.60;102131.44;4995263;28;19922;-70
2022/05/05 04:29:53;;;;;;;;;;;;;;;14.57;46.12;102134.56;4995925;28;19925;-70
2022/05/05 04:32:18;;;;;;;;;;;;;;;14.65;46.59;102137.00;4995649;28;19971;-71
2022/05/05 04:34:43;;;;;;;;;;;;;;;14.58;46.27;102140.81;4995905;28;19972;-70
2022/05/05 04:37:08;;;;;;;;;;;;;;;14.54;45.96;102134.19;4995349;28;19921;-71
2022/05/05 04:39:33;;;;;;;;;;;;;;;14.60;46.06;102142.22;4993872;28;19920;-70
2022/05/05 04:41:59;;;;;;;;;;;;;;;14.53;46.11;102138.75;4995598;28;19972;-71
2022/05/05 04:44:24;;;;;;;;;;;;;;;14.44;46.02;102144.66;4995029;28;19918;-70
2022/05/05 04:46:49;;;;;;;;;;;;;;;14.19;47.31;102143.75;5013208;28;19922;-71
2022/05/05 04:49:14;;;;;;;;;;;;;;;14.16;47.62;102149.59;5014717;28;20411;-71
2022/05/05 04:51:40;;;;;;;;;;;;;;;14.15;47.59;102148.78;5014049;28;19917;-70
2022/05/05 04:54:05;;;;;;;;;;;;;;;14.46;47.02;102156.09;5014531;28;20393;-71
2022/05/05 04:56:30;;;;;;;;;;;;;;;14.13;47.44;102159.78;5014342;28;20297;-71
2022/05/05 04:58:55;;;;;;;;;;;;;;;14.13;47.93;102157.09;5014285;28;19944;-71
2022/05/05 05:01:21;;;;;;;;;;;;;;;14.06;48.43;102164.41;5017323;28;19928;-71
2022/05/05 05:03:46;;;;;;;;;;;;;;;14.22;47.71;102164.94;5034005;28;19975;-71
2022/05/05 05:06:11;;;;;;;;;;;;;;;14.33;47.94;102164.31;5034391;28;19917;-71
2022/05/05 05:08:37;;;;;;;;;;;;;;;14.33;47.78;102161.59;5033746;28;19921;-71
2022/05/05 05:11:02;;;;;;;;;;;;;;;14.43;47.66;102167.34;5034102;28;19928;-71
2022/05/05 05:13:28;;;;;;;;;;;;;;;14.49;47.59;102172.72;5033984;28;19924;-70
2022/05/05 05:15:53;;;;;;;;;;;;;;;15.00;46.05;102166.28;5034171;28;19925;-71
2022/05/05 05:18:18;;;;;;;;;;;;;;;15.07;45.68;102173.28;5034005;28;19921;-70
2022/05/05 05:20:43;;;;;;;;;;;;;;;15.27;45.53;102164.97;5010928;28;19918;-71
2022/05/05 05:23:09;;;;;;;;;;;;;;;15.22;45.55;102172.94;4994368;28;19928;-72
2022/05/05 05:25:34;;;;;;;;;;;;;;;15.28;45.34;102169.34;4994488;28;19968;-70
2022/05/05 05:28:00;;;;;;;;;;;;;;;15.10;45.47;102178.25;4994601;28;19929;-71
2022/05/05 05:30:25;;;;;;;;;;;;;;;15.23;45.50;102178.16;4994497;28;19921;-67
2022/05/05 05:32:50;;;;;;;;;;;;;;;15.16;45.46;102181.94;4994930;28;19957;-71
2022/05/05 05:35:16;;;;;;;;;;;;;;;15.29;45.49;102184.56;4994149;28;19922;-71
2022/05/05 05:37:41;;;;;;;;;;;;;;;15.28;44.93;102175.59;4994239;28;19918;-71
2022/05/05 05:40:07;;;;;;;;;;;;;;;15.36;45.08;102183.44;4994154;28;19980;-71
2022/05/05 05:42:32;;;;;;;;;;;;;;;15.47;44.99;102187.28;4993916;28;19921;-69
2022/05/05 05:44:57;;;;;;;;;;;;;;;15.58;44.35;102178.44;4997494;28;20488;-71
2022/05/05 05:47:22;;;;;;;;;;;;;;;15.70;44.59;102179.34;5013495;28;19921;-70
2022/05/05 05:49:48;;;;;;;;;;;;;;;15.83;45.00;102188.13;5013576;28;19982;-71
2022/05/05 05:52:13;;;;;;;;;;;;;;;15.96;43.82;102184.41;5013680;28;19929;-71
2022/05/05 05:54:38;;;;;;;;;;;;;;;16.10;44.23;102191.34;5013254;28;19921;-70
2022/05/05 05:57:04;;;;;;;;;;;;;;;16.21;43.98;102190.59;5013928;28;20001;-71
2022/05/05 05:59:29;;;;;;;;;;;;;;;16.32;43.98;102180.81;5013172;28;20055;-71
2022/05/05 06:04:45;;;;;;;;;;;;;;;16.76;42.57;102193.97;5030299;28;19921;-71
2022/05/05 06:07:11;;;;;;;;;;;;;;;17.00;42.04;102198.34;5030183;28;19921;-71
2022/05/05 06:09:36;;;;;;;;;;;;;;;17.08;42.01;102189.88;5030323;28;20379;-71
2022/05/05 06:12:03;;;;;;;;;;;;;;;17.21;41.17;102191.53;5030798;28;19917;-71
2022/05/05 06:14:28;;;;;;;;;;;;;;;17.36;41.07;102189.16;5030245;28;19921;-71
2022/05/05 06:16:53;;;;;;;;;;;;;;;17.27;41.33;102201.47;5012441;28;20548;-71
2022/05/05 06:19:19;;;;;;;;;;;;;;;17.05;41.71;102193.06;5010468;28;20377;-71
2022/05/05 06:21:44;;;;;;;;;;;;;;;17.21;41.38;102197.81;4993244;28;20352;-71
2022/05/05 06:24:10;;;;;;;;;;;;;;;17.34;40.69;102196.72;5011023;28;20456;-71
2022/05/05 06:26:35;;;;;;;;;;;;;;;17.47;40.55;102200.03;5010582;28;20393;-72
2022/05/05 06:29:01;;;;;;;;;;;;;;;17.66;40.11;102199.91;5010542;28;19921;-70
2022/05/05 06:31:26;;;;;;;;;;;;;;;17.89;39.65;102208.84;5010580;28;19948;-71
2022/05/05 06:33:51;;;;;;;;;;;;;;;18.03;39.64;102210.25;5010262;28;20008;-71
2022/05/05 06:36:17;;;;;;;;;;;;;;;18.14;39.31;102200.41;5011287;28;19928;-72
2022/05/05 06:38:42;;;;;;;;;;;;;;;17.98;39.66;102214.75;5010937;28;19931;-73
2022/05/05 06:41:08;;;;;;;;;;;;;;;18.45;38.65;102213.56;5004959;28;19922;-71
2022/05/05 06:43:33;;;;;;;;;;;;;;;18.73;38.81;102213.50;4993364;28;19922;-71
2022/05/05 06:45:59;;;;;;;;;;;;;;;18.90;37.76;102208.09;5004571;28;20281;-71
2022/05/05 06:48:24;;;;;;;;;;;;;;;18.61;38.71;102214.66;5011375;28;19932;-71
2022/05/05 06:50:49;;;;;;;;;;;;;;;18.87;38.25;102212.13;5012922;28;19976;-73
2022/05/05 06:53:14;;;;;;;;;;;;;;;19.21;37.11;102211.06;5012577;28;19929;-71
2022/05/05 06:55:39;;;;;;;;;;;;;;;19.10;37.82;102211.97;5013262;28;19922;-71
2022/05/05 06:58:05;;;;;;;;;;;;;;;19.51;37.36;102208.00;5012763;28;20270;-72
2022/05/05 07:03:14;;;;;;;;;;;;;;;19.53;37.44;102213.19;5031577;28;19936;-72
2022/05/05 07:05:39;;;;;;;;;;;;;;;19.71;37.36;102216.47;5032287;28;19921;-72
2022/05/05 07:08:04;;;;;;;;;;;;;;;20.14;36.61;102216.47;5032353;28;19928;-71
2022/05/05 07:13:14;;;;;;;;;;;;;;;20.07;36.92;102221.28;5014199;28;20012;-72
2022/05/05 07:15:40;;;;;;;;;;;;;;;20.02;36.99;102217.69;5015410;28;20025;-72
2022/05/05 07:18:05;;;;;;;;;;;;;;;20.19;37.38;102228.53;5016989;28;19917;-73
2022/05/05 07:20:31;;;;;;;;;;;;;;;20.75;36.21;102220.69;5014931;28;20069;-71
2022/05/05 07:22:59;;;;;;;;;;;;;;;20.91;36.27;102225.19;4996771;28;19922;-72
2022/05/05 07:25:24;;;;;;;;;;;;;;;20.97;35.81;102228.81;4996984;28;19922;-71
2022/05/05 07:27:50;;;;;;;;;;;;;;;20.93;35.49;102227.69;4997056;28;20386;-72
2022/05/05 07:30:15;;;;;;;;;;;;;;;20.78;35.69;102227.53;4996620;28;20444;-71
2022/05/05 07:32:41;;;;;;;;;;;;;;;20.72;35.60;102229.41;4996592;28;19918;-71
2022/05/05 07:35:06;;;;;;;;;;;;;;;20.74;35.59;102235.44;4994738;28;19922;-71
2022/05/05 07:37:32;;;;;;;;;;;;;;;21.04;35.96;102236.81;4996287;28;19918;-70
2022/05/05 07:39:57;;;;;;;;;;;;;;;21.11;35.18;102232.78;4996426;28;19922;-71
2022/05/05 07:42:22;;;;;;;;;;;;;;;21.42;33.94;102242.03;4997040;28;20296;-72
2022/05/05 07:44:48;;;;;;;;;;;;;;;20.89;34.33;102240.22;5007750;28;19929;-71
2022/05/05 07:47:13;;;;;;;;;;;;;;;21.35;33.66;102238.69;5015933;28;19921;-70
2022/05/05 07:49:38;;;;;;;;;;;;;;;21.77;34.05;102245.00;5015820;28;19921;-72
2022/05/05 07:52:03;;;;;;;;;;;;;;;21.43;33.14;102230.84;5015730;28;20280;-71
2022/05/05 07:54:34;;;;;;;;;;;;;;;21.78;30.59;102236.50;5015567;28;19926;-71
2022/05/05 07:57:02;;;;;;;;;;;;;;;21.66;31.75;102230.44;5016855;28;19945;-72
2022/05/05 07:59:28;;;;;;;;;;;;;;;22.24;31.22;102239.50;5015702;28;19917;-71
2022/05/05 08:01:53;;;;;;;;;;;;;;;22.33;31.66;102240.59;5022796;28;20399;-71
2022/05/05 08:04:18;;;;;;;;;;;;;;;22.28;31.15;102240.59;5035078;28;19921;-71
2022/05/05 08:06:44;;;;;;;;;;;;;;;22.57;30.84;102241.78;5035478;28;19913;-70
2022/05/05 08:09:09;;;;;;;;;;;;;;;21.88;30.43;102249.47;5016411;28;20369;-71
2022/05/05 08:11:37;;;;;;;;;;;;;;;22.92;28.91;102250.06;5002852;28;19984;-71
2022/05/05 08:14:02;;;;;;;;;;;;;;;22.87;27.61;102252.81;4996060;28;20277;-71
2022/05/05 08:16:28;;;;;;;;;;;;;;;22.79;28.13;102247.88;4995860;28;19922;-70
2022/05/05 08:18:53;;;;;;;;;;;;;;;22.99;28.53;102253.38;4995761;28;20508;-71
2022/05/05 08:21:18;;;;;;;;;;;;;;;23.38;28.36;102253.66;5003627;28;20047;-69
2022/05/05 08:23:43;;;;;;;;;;;;;;;23.75;27.50;102256.88;5015236;28;19921;-71
2022/05/05 08:28:52;;;;;;;;;;;;;;;22.70;27.71;102260.47;5004192;28;19945;-71
2022/05/05 08:31:17;;;;;;;;;;;;;;;22.56;28.95;102262.06;5003299;28;19921;-71
2022/05/05 08:33:43;;;;;;;;;;;;;;;23.24;28.07;102261.59;5001014;28;19925;-71
2022/05/05 08:36:09;;;;;;;;;;;;;;;24.24;26.91;102259.75;4996803;28;19996;-70
2022/05/05 08:38:35;;;;;;;;;;;;;;;24.46;26.08;102254.69;4996302;28;20378;-71
2022/05/05 08:41:18;;;;;;;;;;;;;;;24.04;25.96;102259.84;5002226;28;20283;-70
2022/05/05 08:43:44;;;;;;;;;;;;;;;23.99;26.53;102257.09;5015870;28;19921;-73
2022/05/05 08:46:12;;;;;;;;;;;;;;;23.76;27.45;102253.06;5015554;28;19928;-70
2022/05/05 08:48:37;;;;;;;;;;;;;;;23.65;26.55;102258.81;5014915;28;19941;-71
2022/05/05 08:51:04;;;;;;;;;;;;;;;23.67;27.26;102259.38;5016046;28;19917;-71
2022/05/05 08:53:30;;;;;;;;;;;;;;;24.21;27.33;102261.16;5015151;28;19921;-70
2022/05/05 08:58:58;;;;;;;;;;;;;;;24.55;26.73;102260.44;5015109;28;19968;-70
2022/05/05 09:01:26;;;;;;;;;;;;;;;23.87;27.33;102267.56;5015113;28;20017;-70
2022/05/05 09:03:51;;;;;;;;;;;;;;;24.11;28.20;102268.63;5009255;28;19930;-70
2022/05/05 09:06:16;;;;;;;;;;;;;;;24.15;26.82;102269.69;5012729;28;20400;-71
2022/05/05 09:08:44;;;;;;;;;;;;;;;24.54;27.53;102272.53;5014943;28;19945;-69
2022/05/05 09:11:17;;;;;;;;;;;;;;;24.23;27.26;102275.44;5014979;28;19921;-71
2022/05/05 09:13:42;;;;;;;;;;;;;;;23.72;27.49;102278.59;5012354;28;20013;-71
2022/05/05 09:16:08;;;;;;;;;;;;;;;24.19;26.85;102273.53;5014951;28;19968;-72
2022/05/05 09:18:34;;;;;;;;;;;;;;;24.14;27.68;102279.84;5014715;28;19952;-70
2022/05/05 09:21:01;;;;;;;;;;;;;;;24.20;28.40;102284.22;5020549;28;19913;-72
2022/05/05 09:23:34;;;;;;;;;;;;;;;23.93;27.81;102275.50;5016323;28;19994;-72
2022/05/05 09:26:00;;;;;;;;;;;;;;;22.55;29.39;102285.88;5009134;28;19926;-70
2022/05/05 09:28:31;;;;;;;;;;;;;;;23.13;29.07;102287.41;5014922;28;19930;-71
2022/05/05 09:31:00;;;;;;;;;;;;;;;24.03;27.75;102280.19;5015479;28;20374;-70
2022/05/05 09:33:38;;;;;;;;;;;;;;;24.70;27.31;102282.31;5015111;28;19917;-69
2022/05/05 09:36:07;;;;;;;;;;;;;;;23.81;28.56;102275.00;5002963;28;19948;-70
2022/05/05 09:39:00;;;;;;;;;;;;;;;23.37;28.22;102287.69;4994352;28;20410;-70
2022/05/05 09:41:30;;;;;;;;;;;;;;;23.34;29.25;102286.31;4994709;28;20393;-70
2022/05/05 09:43:56;;;;;;;;;;;;;;;23.82;28.05;102284.06;4994646;28;19922;-71
2022/05/05 09:46:27;;;;;;;;;;;;;;;24.81;27.28;102282.00;4994921;28;20254;-70
2022/05/05 09:48:52;;;;;;;;;;;;;;;23.78;27.95;102286.53;4993073;28;19961;-71
2022/05/05 09:51:17;;;;;;;;;;;;;;;24.48;26.89;102287.41;4995339;28;19957;-71
2022/05/05 10:00:19;;;;;;;;;;;;;;;25.31;25.91;102283.56;4994688;28;19929;-71
2022/05/05 10:05:30;;;;;;;;;;;;;;;25.09;26.44;102284.00;4994393;28;19925;-70
2022/05/05 10:07:56;;;;;;;;;;;;;;;24.88;26.58;102287.19;4994127;28;19953;-71
2022/05/05 10:10:21;;;;;;;;;;;;;;;25.43;26.19;102284.03;4994093;28;19918;-69
2022/05/05 10:12:48;;;;;;;;;;;;;;;25.67;26.57;102292.34;4994123;28;19932;-72
2022/05/05 10:15:13;;;;;;;;;;;;;;;25.50;26.42;102291.94;5001148;28;20370;-71
2022/05/05 10:17:39;;;;;;;;;;;;;;;25.89;26.01;102293.44;5013570;28;19956;-71
2022/05/05 10:20:05;;;;;;;;;;;;;;;25.50;26.50;102290.00;5013582;28;20345;-70
2022/05/05 10:22:54;;;;;;;;;;;;;;;26.22;25.61;102294.47;5030533;28;19928;-69
2022/05/05 10:25:28;;;;;;;;;;;;;;;26.67;25.63;102285.56;5031659;28;19921;-71
2022/05/05 10:27:55;;;;;;;;;;;;;;;26.15;25.58;102284.91;5032765;28;19932;-71
2022/05/05 10:30:34;;;;;;;;;;;;;;;26.72;25.28;102293.00;5014117;28;19917;-71
2022/05/05 10:33:00;;;;;;;;;;;;;;;26.25;25.30;102284.78;5021633;28;19917;-71
2022/05/05 10:35:26;;;;;;;;;;;;;;;26.63;25.43;102294.75;5033671;28;19974;-71
2022/05/05 10:37:51;;;;;;;;;;;;;;;27.15;24.91;102280.72;5033468;28;19924;-71
2022/05/05 10:40:17;;;;;;;;;;;;;;;27.13;24.43;102293.19;5033675;28;19921;-71
2022/05/05 10:42:45;;;;;;;;;;;;;;;26.90;24.37;102292.19;5030372;28;19920;-70
2022/05/05 10:45:12;;;;;;;;;;;;;;;27.33;23.79;102290.94;4999088;28;19916;-71
2022/05/05 10:47:47;;;;;;;;;;;;;;;26.28;24.62;102292.50;5004713;28;19929;-70
2022/05/05 10:50:28;;;;;;;;;;;;;;;26.85;24.52;102290.31;4997557;28;20397;-70
2022/05/05 10:52:53;;;;;;;;;;;;;;;24.70;26.93;102293.31;5017280;28;19928;-70
2022/05/05 10:55:42;;;;;;;;;;;;;;;25.89;25.57;102298.13;5016824;28;19925;-72
2022/05/05 10:58:10;;;;;;;;;;;;;;;25.65;26.59;102300.06;4979072;28;20055;-71
2022/05/05 11:00:40;;;;;;;;;;;;;;;25.96;25.95;102306.88;4973656;28;19944;-67
2022/05/05 11:03:09;;;;;;;;;;;;;;;25.86;25.88;102301.50;4974076;28;19925;-67
2022/05/05 11:05:38;;;;;;;;;;;;;;;26.81;25.66;102302.25;4974448;28;20492;-68
2022/05/05 11:08:06;;;;;;;;;;;;;;;26.48;25.19;102305.97;4974342;28;19922;-70
2022/05/05 11:10:41;;;;;;;;;;;;;;;24.26;28.28;102299.59;4965780;28;19998;-71
2022/05/05 11:13:07;;;;;;;;;;;;;;;24.55;28.18;102307.97;4958089;28;19922;-70
2022/05/05 11:23:56;;;;;;;;;;;;;;;25.92;27.21;102308.59;4993449;28;19928;-70
2022/05/05 11:26:21;;;;;;;;;;;;;;;26.52;25.79;102307.84;4993382;28;19924;-71
2022/05/05 11:28:48;;;;;;;;;;;;;;;27.26;25.40;102301.50;4992945;28;19930;-70
2022/05/05 11:31:20;;;;;;;;;;;;;;;26.62;26.18;102302.22;4993812;28;19917;-69
2022/05/05 11:33:53;;;;;;;;;;;;;;;24.83;28.65;102296.28;4994027;28;19972;-71
2022/05/05 11:36:19;;;;;;;;;;;;;;;25.65;26.94;102300.84;4997396;28;19913;-71
2022/05/05 11:38:44;;;;;;;;;;;;;;;26.54;25.84;102302.03;4996988;28;19983;-71
2022/05/05 11:41:10;;;;;;;;;;;;;;;27.60;24.88;102302.06;4997135;28;19917;-69
2022/05/05 11:46:19;;;;;;;;;;;;;;;25.80;26.88;102303.47;5010185;28;19971;-69
2022/05/05 11:48:54;;;;;;;;;;;;;;;24.93;27.82;102301.72;5015150;28;19929;-70
2022/05/05 11:51:20;;;;;;;;;;;;;;;25.59;27.29;102296.50;5016829;28;19924;-69
2022/05/05 11:53:46;;;;;;;;;;;;;;;26.10;26.31;102296.84;5016372;28;19925;-69
2022/05/05 11:56:12;;;;;;;;;;;;;;;26.69;24.52;102299.09;5016670;28;19922;-70
2022/05/05 12:01:42;;;;;;;;;;;;;;;28.06;24.01;102290.97;5035991;28;20460;-70
2022/05/05 12:04:08;;;;;;;;;;;;;;;27.92;24.16;102292.88;5036560;28;20004;-70
2022/05/05 12:06:36;;;;;;;;;;;;;;;27.17;24.60;102289.53;5035478;28;20324;-69
2022/05/05 12:09:01;;;;;;;;;;;;;;;27.47;25.11;102289.06;5035717;28;19984;-70
2022/05/05 12:11:27;;;;;;;;;;;;;;;26.98;25.67;102285.97;5030760;28;20372;-69
2022/05/05 12:13:58;;;;;;;;;;;;;;;27.37;24.73;102283.69;4996515;28;19965;-70
2022/05/05 12:16:28;;;;;;;;;;;;;;;26.38;25.90;102286.84;4996398;28;19929;-70
2022/05/05 12:18:53;;;;;;;;;;;;;;;26.23;26.73;102284.25;4996721;28;19921;-70
2022/05/05 12:21:25;;;;;;;;;;;;;;;25.62;27.38;102284.09;4996649;28;19924;-70
2022/05/05 12:23:56;;;;;;;;;;;;;;;25.36;27.70;102279.91;4976892;28;20442;-70
2022/05/05 12:26:26;;;;;;;;;;;;;;;26.45;26.00;102290.03;4992373;28;19922;-69
2022/05/05 12:28:51;;;;;;;;;;;;;;;26.31;26.41;102286.38;4999556;28;19926;-70
2022/05/05 12:31:21;;;;;;;;;;;;;;;25.59;27.02;102287.44;5014795;28;20032;-70
2022/05/05 12:33:46;;;;;;;;;;;;;;;26.06;26.31;102290.28;5015544;28;20343;-70
2022/05/05 12:36:13;;;;;;;;;;;;;;;25.71;26.81;102283.19;5016363;28;19945;-70
2022/05/05 12:38:38;;;;;;;;;;;;;;;26.67;26.24;102280.06;5015975;28;19922;-72
2022/05/05 12:41:10;;;;;;;;;;;;;;;26.04;27.37;102292.47;5015290;28;19967;-69
2022/05/05 12:43:35;;;;;;;;;;;;;;;24.71;28.13;102286.69;5014823;28;19918;-68
2022/05/05 12:46:02;;;;;;;;;;;;;;;25.65;26.74;102297.31;5014436;28;20040;-69
2022/05/05 12:48:27;;;;;;;;;;;;;;;26.00;25.96;102292.22;5015126;28;20399;-69
2022/05/05 12:50:53;;;;;;;;;;;;;;;27.29;25.18;102286.28;5013604;28;19997;-70
2022/05/05 13:01:37;;;;;;;;;;;;;;;26.52;26.37;102296.84;5015482;28;19928;-68
2022/05/05 13:04:08;;;;;;;;;;;;;;;27.05;25.43;102296.63;5005120;28;19928;-68
2022/05/05 13:06:34;;;;;;;;;;;;;;;27.33;24.67;102303.94;5007991;28;19917;-66
2022/05/05 13:09:00;;;;;;;;;;;;;;;27.01;24.50;102298.38;5014383;28;19992;-68
2022/05/05 13:11:25;;;;;;;;;;;;;;;27.25;24.13;102299.06;5014196;28;19940;-68
2022/05/05 13:13:51;;;;;;;;;;;;;;;27.94;22.95;102296.16;5013814;28;19921;-69
2022/05/05 13:16:16;;;;;;;;;;;;;;;26.77;25.47;102293.75;5014236;28;19924;-69
2022/05/05 13:18:42;;;;;;;;;;;;;;;28.01;25.10;102291.06;5014114;28;19918;-69
2022/05/05 13:21:08;;;;;;;;;;;;;;;27.74;23.90;102291.03;5014757;28;19917;-69
2022/05/05 13:23:33;;;;;;;;;;;;;;;28.42;23.50;102294.63;5014351;28;20036;-69
2022/05/05 13:25:59;;;;;;;;;;;;;;;27.02;25.10;102297.25;5013392;28;19922;-68
2022/05/05 13:28:24;;;;;;;;;;;;;;;26.79;25.40;102298.97;5010143;28;19926;-68